Almont, Michigan
Current Conditions -  °F | °C
As of 1:54 PM on Thursday 30 Oct 2014 (Local Time) from KD95 Reporting Station
Overcast Overcast  
Wind Chill:   Ceiling: 4400
Heat Index:   Visibility: 10mi
Dew Point:   Wind: 6mph
Humidity: 61%   Direction: 250°WSW
Pressure: 30.09"   Gusts: NA
Location:  42.92°N, 83.04°W
Report Text: KD95 301754Z AUTO 25005KT 10SM OVC044 08/01 A3009 RMK AO2 T00790009
Loading
Personal Weather Stations






























Interactive Weather Map
Tropical Storm Tracking
New forecast layout! Learn more

10-Day Weather Forecast

Advertisements
Track Severe Weather on mobile